Terminal Aerodrome Forecast
Issued by NWS

Home | Current Version | Previous Version | Graphics & Text | Print | Product List | Glossary On
Versions: 1 2 3 4 5 6 7 8 9 10 11 12 13 14 15 16 17 18 19 20 21
000
FTUS43 KLOT 260900 AAA
TAFORD
TAF AMD
KORD 260911Z 2609/2712 20011KT P6SM SCT250 WS020/23045KT
     FM261500 19013G19KT P6SM BKN200
     FM262200 21012KT P6SM SCT020 BKN150
     FM270000 20008KT P6SM BKN018
     FM270600 19008KT 4SM -RA BR OVC010=

USA.gov is the U.S. government's official web portal to all federal, state and local government web resources and services.